Time;durP1;ratioP1;P1;durP2;ratioP2;P2;SDS_P1;SDS_P2;PMS_P1;PMS_P2;Temp;Humidity;BMP_temperature;BMP_pressure;BME280_temperature;BME280_humidity;BME280_pressure;Samples;Min_cycle;Max_cycle;Signal;HPM_P1;HPM_P2
2023/01/08 00:01:11;;;;;;;3.72;1.98;;;;;;;8.81;100.00;99776.94;5225666;28;20028;-76
2023/01/08 00:03:42;;;;;;;3.40;1.65;;;;;;;8.62;100.00;99770.78;5230654;28;20027;-74
2023/01/08 00:06:16;;;;;;;4.00;1.80;;;;;;;8.65;100.00;99768.94;5205990;28;20406;-75
2023/01/08 00:08:47;;;;;;;4.35;1.58;;;;;;;8.47;100.00;99761.00;5223399;28;20099;-74
2023/01/08 00:11:17;;;;;;;4.45;1.80;;;;;;;8.56;100.00;99773.66;5225145;28;20020;-76
2023/01/08 00:13:47;;;;;;;5.30;2.05;;;;;;;8.58;100.00;99767.47;5227668;28;20040;-74
2023/01/08 00:16:18;;;;;;;3.97;1.80;;;;;;;8.68;100.00;99763.59;5232638;28;20024;-74
2023/01/08 00:18:49;;;;;;;3.03;1.73;;;;;;;8.63;100.00;99760.34;5236084;28;20049;-74
2023/01/08 00:21:19;;;;;;;2.72;1.75;;;;;;;8.66;100.00;99765.41;5227549;28;20029;-76
2023/01/08 00:23:49;;;;;;;4.07;1.70;;;;;;;8.67;100.00;99751.47;5224629;28;20490;-75
2023/01/08 00:26:20;;;;;;;3.47;1.65;;;;;;;8.79;100.00;99745.78;5229420;28;20416;-75
2023/01/08 00:28:50;;;;;;;2.95;1.38;;;;;;;8.66;100.00;99757.59;5228285;28;20541;-77
2023/01/08 00:31:21;;;;;;;2.80;1.50;;;;;;;8.77;100.00;99752.81;5224938;28;20017;-74
2023/01/08 00:33:51;;;;;;;2.65;1.75;;;;;;;8.76;100.00;99750.25;5226592;28;20017;-76
2023/01/08 00:36:21;;;;;;;4.45;1.80;;;;;;;8.72;100.00;99744.31;5214555;28;20029;-75
2023/01/08 00:38:52;;;;;;;3.22;2.05;;;;;;;8.83;100.00;99742.13;5210351;28;20033;-74
2023/01/08 00:41:22;;;;;;;9.43;2.10;;;;;;;8.94;100.00;99749.47;5218389;28;20142;-75
2023/01/08 00:43:52;;;;;;;4.57;1.92;;;;;;;9.15;100.00;99744.22;5217723;28;20489;-76
2023/01/08 00:46:22;;;;;;;3.13;1.90;;;;;;;9.17;100.00;99729.34;5201855;28;20079;-75
2023/01/08 00:48:53;;;;;;;3.10;1.83;;;;;;;9.27;100.00;99722.78;5218581;28;20398;-75
2023/01/08 00:51:25;;;;;;;4.65;2.40;;;;;;;9.27;100.00;99715.84;5196442;28;20021;-77
2023/01/08 00:53:55;;;;;;;3.72;2.13;;;;;;;9.26;100.00;99715.91;5209366;28;20437;-75
2023/01/08 00:56:25;;;;;;;2.55;1.90;;;;;;;9.36;100.00;99717.19;5218182;28;20025;-76
2023/01/08 00:58:55;;;;;;;4.53;2.20;;;;;;;9.42;100.00;99715.16;5219358;28;20031;-75
2023/01/08 01:01:26;;;;;;;3.42;1.88;;;;;;;9.33;100.00;99702.53;5218144;28;20074;-74
2023/01/08 01:03:56;;;;;;;3.85;1.80;;;;;;;9.30;100.00;99720.91;5236793;28;20063;-75
2023/01/08 01:06:26;;;;;;;3.28;1.90;;;;;;;9.33;100.00;99723.38;5221180;28;20033;-74
2023/01/08 01:08:57;;;;;;;5.65;2.17;;;;;;;9.19;100.00;99714.47;5219051;28;20641;-77
2023/01/08 01:11:27;;;;;;;4.97;2.55;;;;;;;9.20;100.00;99724.84;5208689;28;20024;-76
2023/01/08 01:13:58;;;;;;;5.72;2.20;;;;;;;9.52;99.62;99731.25;5214938;28;20012;-76
2023/01/08 01:16:28;;;;;;;4.00;1.92;;;;;;;9.55;98.57;99741.53;5229607;28;20029;-76
2023/01/08 01:18:58;;;;;;;3.03;2.00;;;;;;;9.48;99.36;99753.16;5226644;28;20025;-77
2023/01/08 01:21:30;;;;;;;3.13;1.90;;;;;;;9.39;100.00;99753.56;5225011;28;20553;-74
2023/01/08 01:24:03;;;;;;;5.70;2.10;;;;;;;9.40;100.00;99750.03;5229866;28;20029;-76
2023/01/08 01:26:34;;;;;;;4.35;1.90;;;;;;;9.60;100.00;99735.22;5235264;28;20262;-75
2023/01/08 01:29:04;;;;;;;2.67;1.90;;;;;;;9.69;98.33;99705.25;5222923;28;20375;-74
2023/01/08 01:31:34;;;;;;;3.30;2.20;;;;;;;9.67;97.89;99712.31;5229133;28;20035;-77
2023/01/08 01:34:05;;;;;;;4.53;1.80;;;;;;;9.55;99.65;99702.41;5231122;28;20520;-75
2023/01/08 01:36:36;;;;;;;3.50;1.83;;;;;;;9.50;99.31;99705.22;5229031;28;20115;-74
2023/01/08 01:39:06;;;;;;;4.18;2.22;;;;;;;9.52;100.00;99711.22;5231843;28;20036;-74
2023/01/08 01:41:44;;;;;;;3.08;1.90;;;;;;;9.41;100.00;99710.88;5235255;28;20044;-75
2023/01/08 01:44:40;;;;;;;3.22;1.90;;;;;;;9.28;100.00;99703.66;5213402;28;20025;-74
2023/01/08 01:47:25;;;;;;;2.90;1.80;;;;;;;9.22;100.00;99698.69;5217697;28;20116;-75
2023/01/08 01:49:56;;;;;;;3.38;1.90;;;;;;;9.30;100.00;99707.06;5220105;28;20028;-75
2023/01/08 01:52:29;;;;;;;3.05;2.00;;;;;;;9.32;100.00;99693.00;5223446;28;20033;-74
2023/01/08 01:55:05;;;;;;;3.15;2.05;;;;;;;9.33;100.00;99693.88;5204660;28;20043;-74
2023/01/08 01:57:37;;;;;;;3.85;2.10;;;;;;;9.38;100.00;99689.28;5206239;28;20039;-76
2023/01/08 02:00:08;;;;;;;3.80;1.80;;;;;;;9.46;100.00;99690.63;5220440;28;20037;-76
2023/01/08 02:02:39;;;;;;;3.08;1.90;;;;;;;9.43;100.00;99689.91;5229922;28;20017;-76
2023/01/08 02:05:09;;;;;;;3.30;1.90;;;;;;;9.44;100.00;99683.78;5221718;28;20028;-76
2023/01/08 02:07:58;;;;;;;3.92;1.95;;;;;;;9.42;100.00;99678.66;5205562;28;20036;-75
2023/01/08 02:10:52;;;;;;;3.55;2.00;;;;;;;9.57;100.00;99692.75;5220042;28;20029;-75
2023/01/08 02:13:28;;;;;;;3.30;1.90;;;;;;;9.55;100.00;99678.94;5215644;28;20447;-74
2023/01/08 02:16:07;;;;;;;2.97;1.80;;;;;;;9.56;100.00;99673.66;5223169;28;20372;-75
2023/01/08 02:18:47;;;;;;;3.45;1.90;;;;;;;9.39;100.00;99676.19;5205523;28;20037;-76
2023/01/08 02:21:50;;;;;;;3.10;1.80;;;;;;;9.39;100.00;99665.75;5225398;28;20036;-76
2023/01/08 02:24:38;;;;;;;4.90;2.10;;;;;;;9.50;100.00;99667.88;5201882;28;20469;-76
2023/01/08 02:27:11;;;;;;;4.22;2.03;;;;;;;9.49;100.00;99681.84;5221352;28;20396;-74
2023/01/08 02:29:43;;;;;;;4.88;2.20;;;;;;;9.59;100.00;99678.75;5237136;22;20627;-78
2023/01/08 02:32:13;;;;;;;3.47;2.03;;;;;;;9.52;100.00;99677.31;5197258;28;20492;-77
2023/01/08 02:34:44;;;;;;;6.20;2.10;;;;;;;9.36;100.00;99675.47;5205728;28;20025;-78
2023/01/08 02:37:14;;;;;;;5.57;2.08;;;;;;;9.50;100.00;99683.53;5206153;28;20021;-78
2023/01/08 02:40:03;;;;;;;3.75;2.00;;;;;;;9.41;100.00;99683.94;5211373;28;20474;-77
2023/01/08 02:42:46;;;;;;;4.20;2.00;;;;;;;9.46;100.00;99684.59;5210223;28;20404;-78
2023/01/08 02:45:32;;;;;;;3.78;1.92;;;;;;;9.35;100.00;99685.03;5217491;28;20111;-78
2023/01/08 02:48:13;;;;;;;3.55;2.28;;;;;;;9.33;100.00;99680.84;5220640;28;20094;-78
2023/01/08 02:50:51;;;;;;;3.25;1.80;;;;;;;9.22;100.00;99688.28;5206630;28;20516;-78
2023/01/08 02:53:26;;;;;;;4.95;1.90;;;;;;;9.30;100.00;99687.03;5196410;28;20521;-78
2023/01/08 02:56:00;;;;;;;3.60;2.10;;;;;;;9.21;100.00;99671.81;5213889;28;20027;-78
2023/01/08 02:58:33;;;;;;;3.55;2.10;;;;;;;9.13;100.00;99664.38;5212238;28;20041;-78
2023/01/08 03:01:07;;;;;;;4.47;2.00;;;;;;;9.08;100.00;99668.97;5188576;28;20029;-78
2023/01/08 03:03:41;;;;;;;3.08;1.75;;;;;;;9.01;100.00;99667.50;5197055;28;20063;-78
2023/01/08 03:06:15;;;;;;;3.53;2.00;;;;;;;9.03;100.00;99665.72;5216664;28;20032;-78
2023/01/08 03:08:48;;;;;;;3.30;2.00;;;;;;;9.04;100.00;99686.47;5201270;28;20394;-77
2023/01/08 03:11:20;;;;;;;3.08;1.80;;;;;;;9.17;100.00;99679.81;5211248;28;20036;-78
2023/01/08 03:14:06;;;;;;;4.30;1.98;;;;;;;9.28;100.00;99678.44;5200180;28;20131;-78
2023/01/08 03:17:16;;;;;;;3.78;1.92;;;;;;;9.32;100.00;99679.16;5210317;28;20149;-78
2023/01/08 03:19:58;;;;;;;3.88;2.08;;;;;;;9.27;100.00;99687.16;5076736;29;20518;-78
2023/01/08 03:22:32;;;;;;;4.30;1.85;;;;;;;9.31;100.00;99688.72;5187519;28;20042;-78
2023/01/08 03:25:04;;;;;;;3.80;1.90;;;;;;;9.35;100.00;99674.63;5205484;28;20029;-78
2023/01/08 03:27:41;;;;;;;3.33;2.10;;;;;;;9.33;100.00;99668.63;5211678;28;20033;-79
2023/01/08 03:30:15;;;;;;;3.38;2.15;;;;;;;9.49;100.00;99667.03;5204332;28;20210;-78
2023/01/08 03:32:47;;;;;;;3.58;2.20;;;;;;;9.66;100.00;99672.31;5202709;28;20033;-78
2023/01/08 03:35:21;;;;;;;4.70;2.53;;;;;;;9.85;100.00;99662.69;5200886;28;20040;-77
2023/01/08 03:38:02;;;;;;;3.45;1.98;;;;;;;9.76;100.00;99667.50;5213841;28;20045;-78
2023/01/08 03:40:42;;;;;;;3.42;1.95;;;;;;;9.75;100.00;99673.66;5206777;28;20040;-78
2023/01/08 03:43:12;;;;;;;3.13;1.83;;;;;;;9.71;100.00;99679.94;5211125;28;20367;-78
2023/01/08 03:45:54;;;;;;;2.72;1.90;;;;;;;9.86;100.00;99684.44;5194324;28;20040;-79
2023/01/08 03:48:28;;;;;;;4.28;2.35;;;;;;;9.82;100.00;99680.28;5214131;28;20086;-77
2023/01/08 03:50:59;;;;;;;4.60;2.03;;;;;;;9.80;100.00;99672.53;5207525;28;20483;-77
2023/01/08 03:53:29;;;;;;;3.17;2.10;;;;;;;9.85;100.00;99677.53;5212539;28;20048;-78
2023/01/08 03:55:59;;;;;;;5.72;2.35;;;;;;;9.80;100.00;99661.25;5198572;28;20032;-78
2023/01/08 03:58:29;;;;;;;3.78;1.92;;;;;;;9.91;100.00;99656.34;5215141;28;20109;-79
2023/01/08 04:01:00;;;;;;;4.05;2.28;;;;;;;10.01;100.00;99641.97;5210331;28;20059;-78
2023/01/08 04:03:30;;;;;;;2.97;1.90;;;;;;;9.96;100.00;99641.34;5201265;28;20040;-77
2023/01/08 04:06:00;;;;;;;3.45;1.95;;;;;;;9.94;100.00;99648.38;5218465;28;20048;-78
2023/01/08 04:08:31;;;;;;;4.90;2.05;;;;;;;9.97;100.00;99643.88;5209755;28;20056;-79
2023/01/08 04:11:01;;;;;;;4.22;2.10;;;;;;;9.99;100.00;99649.03;5221597;28;20029;-78
2023/01/08 04:13:31;;;;;;;3.33;1.95;;;;;;;9.94;100.00;99644.00;5220032;28;20024;-78
2023/01/08 04:16:02;;;;;;;4.45;2.20;;;;;;;9.92;100.00;99635.41;5216875;28;20394;-78
2023/01/08 04:18:33;;;;;;;3.78;1.95;;;;;;;9.93;100.00;99637.09;5204956;28;20034;-78
2023/01/08 04:21:03;;;;;;;5.38;1.90;;;;;;;9.98;100.00;99622.06;5212461;28;20037;-79
2023/01/08 04:23:33;;;;;;;2.95;1.73;;;;;;;9.98;100.00;99618.63;5215217;28;20030;-78
2023/01/08 04:26:05;;;;;;;2.95;1.88;;;;;;;9.99;100.00;99615.91;5217479;28;20061;-78
2023/01/08 04:28:36;;;;;;;3.50;1.95;;;;;;;10.01;100.00;99614.09;5196720;28;20107;-78
2023/01/08 04:31:07;;;;;;;5.88;2.00;;;;;;;10.04;100.00;99600.06;5223259;28;20029;-78
2023/01/08 04:33:37;;;;;;;2.35;1.65;;;;;;;10.11;100.00;99610.16;5217038;28;20037;-78
2023/01/08 04:36:08;;;;;;;4.45;1.80;;;;;;;10.05;100.00;99596.53;5205494;28;20089;-78
2023/01/08 04:38:39;;;;;;;2.67;1.95;;;;;;;9.98;100.00;99595.13;5222705;28;20033;-77
2023/01/08 04:41:09;;;;;;;3.85;2.10;;;;;;;9.94;100.00;99602.25;5211592;28;20024;-79
2023/01/08 04:43:40;;;;;;;2.83;1.70;;;;;;;9.89;100.00;99587.75;5207245;28;20024;-78
2023/01/08 04:46:10;;;;;;;3.72;1.73;;;;;;;9.93;100.00;99597.09;5221611;28;20025;-78
2023/01/08 04:48:40;;;;;;;3.72;2.10;;;;;;;9.94;100.00;99601.41;5212892;28;20028;-77
2023/01/08 04:51:10;;;;;;;3.97;1.65;;;;;;;9.89;100.00;99593.81;5217009;28;20060;-78
2023/01/08 04:53:41;;;;;;;3.35;1.90;;;;;;;9.89;100.00;99590.34;5204088;28;20559;-79
2023/01/08 04:56:11;;;;;;;8.23;4.57;;;;;;;9.84;100.00;99585.34;5221687;28;20082;-78
2023/01/08 04:58:42;;;;;;;4.40;2.35;;;;;;;9.89;100.00;99579.91;5216722;28;20026;-79
2023/01/08 05:01:17;;;;;;;4.88;1.90;;;;;;;9.94;100.00;99575.31;5216454;28;20029;-78
2023/01/08 05:03:53;;;;;;;11.05;5.20;;;;;;;9.84;100.00;99587.13;5205365;28;20143;-77
2023/01/08 05:06:24;;;;;;;5.63;2.10;;;;;;;9.97;100.00;99580.41;5217099;28;20389;-77
2023/01/08 05:08:55;;;;;;;4.38;2.13;;;;;;;9.83;100.00;99575.00;5206892;28;20033;-77
2023/01/08 05:11:25;;;;;;;4.53;2.00;;;;;;;9.82;100.00;99566.31;5210466;28;20027;-78
2023/01/08 05:13:56;;;;;;;2.80;1.85;;;;;;;9.89;100.00;99561.63;5191482;28;20021;-77
2023/01/08 05:16:26;;;;;;;3.67;1.80;;;;;;;9.94;100.00;99555.28;5172201;28;20095;-78
2023/01/08 05:18:56;;;;;;;3.95;1.77;;;;;;;9.83;100.00;99562.78;5212328;28;20078;-77
2023/01/08 05:21:27;;;;;;;3.13;2.00;;;;;;;9.86;100.00;99556.56;5207645;28;20044;-78
2023/01/08 05:23:57;;;;;;;5.03;1.80;;;;;;;9.88;100.00;99555.59;5211841;28;20034;-79
2023/01/08 05:26:27;;;;;;;2.85;1.80;;;;;;;9.94;100.00;99557.03;5214356;28;20055;-79
2023/01/08 05:28:57;;;;;;;3.65;1.67;;;;;;;9.92;100.00;99556.25;5207421;28;20351;-78
2023/01/08 05:31:28;;;;;;;3.17;1.65;;;;;;;10.02;100.00;99562.78;5203470;28;20487;-78
2023/01/08 05:33:59;;;;;;;2.15;1.38;;;;;;;10.08;100.00;99557.22;5204168;28;20079;-77
2023/01/08 05:36:30;;;;;;;2.50;1.50;;;;;;;9.98;100.00;99559.41;5214732;28;20033;-79
2023/01/08 05:39:00;;;;;;;2.75;1.60;;;;;;;10.00;100.00;99560.19;5204468;28;20422;-79
2023/01/08 05:41:30;;;;;;;3.65;1.70;;;;;;;9.94;100.00;99554.41;5189305;28;20043;-78
2023/01/08 05:44:01;;;;;;;4.15;1.60;;;;;;;10.10;100.00;99555.38;5211693;28;20029;-78
2023/01/08 05:46:31;;;;;;;2.83;1.70;;;;;;;10.07;100.00;99563.38;5205108;28;20442;-78
2023/01/08 05:49:01;;;;;;;2.40;1.60;;;;;;;10.03;100.00;99559.25;5210172;28;20032;-78
2023/01/08 05:51:32;;;;;;;2.65;1.60;;;;;;;10.04;100.00;99560.91;5206114;28;20376;-79
2023/01/08 05:54:02;;;;;;;2.92;1.58;;;;;;;9.98;100.00;99556.81;5210013;28;20465;-79
2023/01/08 05:56:32;;;;;;;2.90;1.60;;;;;;;10.03;100.00;99547.00;5210539;28;20340;-78
2023/01/08 05:59:03;;;;;;;2.83;1.55;;;;;;;10.02;100.00;99540.09;5190569;28;20029;-78
2023/01/08 06:01:33;;;;;;;2.65;1.75;;;;;;;10.01;100.00;99550.59;5198860;28;20039;-78
2023/01/08 06:04:04;;;;;;;3.88;2.10;;;;;;;9.95;100.00;99538.69;5207778;28;20529;-79
2023/01/08 06:06:34;;;;;;;3.47;1.70;;;;;;;9.97;100.00;99544.69;5213204;28;20037;-78
2023/01/08 06:09:04;;;;;;;3.38;1.70;;;;;;;10.05;100.00;99547.81;5208243;28;20420;-78
2023/01/08 06:11:34;;;;;;;2.60;1.65;;;;;;;10.18;100.00;99542.81;5187738;28;20562;-78
2023/01/08 06:14:05;;;;;;;2.38;1.50;;;;;;;10.21;100.00;99532.22;5212284;28;20029;-77
2023/01/08 06:16:35;;;;;;;1.95;1.40;;;;;;;10.18;100.00;99548.03;5212452;28;20498;-78
2023/01/08 06:19:05;;;;;;;3.28;1.58;;;;;;;10.10;100.00;99551.03;5207368;28;20043;-78
2023/01/08 06:21:36;;;;;;;3.28;1.60;;;;;;;10.05;100.00;99546.94;5206869;28;20587;-77
2023/01/08 06:24:07;;;;;;;2.83;1.48;;;;;;;10.07;100.00;99545.97;5202173;28;20028;-78
2023/01/08 06:26:37;;;;;;;4.65;1.85;;;;;;;10.15;100.00;99556.03;5212161;28;20593;-78
2023/01/08 06:29:08;;;;;;;3.30;1.63;;;;;;;10.10;100.00;99553.63;5213668;28;20032;-77
2023/01/08 06:31:38;;;;;;;1.60;1.30;;;;;;;10.15;100.00;99556.03;5206821;28;20032;-78
2023/01/08 06:34:08;;;;;;;3.45;1.80;;;;;;;10.10;100.00;99553.63;5207300;28;20033;-77
2023/01/08 06:36:39;;;;;;;3.60;1.67;;;;;;;10.04;100.00;99563.53;5211330;28;20025;-77
2023/01/08 06:39:09;;;;;;;2.97;1.35;;;;;;;10.06;100.00;99554.72;5214118;28;20044;-78
2023/01/08 06:41:39;;;;;;;3.95;1.70;;;;;;;9.96;100.00;99563.88;5194804;28;20028;-77
2023/01/08 06:44:09;;;;;;;2.72;1.70;;;;;;;9.95;100.00;99561.31;5208732;28;20505;-78
2023/01/08 06:46:40;;;;;;;4.65;2.17;;;;;;;9.80;100.00;99559.50;5210183;28;20112;-78
2023/01/08 06:49:10;;;;;;;4.05;1.80;;;;;;;9.78;100.00;99550.88;5191972;28;20029;-77
2023/01/08 06:51:40;;;;;;;2.97;1.65;;;;;;;9.78;100.00;99550.88;5204238;28;20073;-78
2023/01/08 06:54:10;;;;;;;4.80;1.88;;;;;;;9.70;100.00;99556.50;5189228;28;20021;-77
2023/01/08 06:56:41;;;;;;;3.30;1.77;;;;;;;9.62;100.00;99552.56;5210478;28;20464;-77
2023/01/08 06:59:11;;;;;;;2.75;1.70;;;;;;;9.57;100.00;99554.53;5191700;28;20021;-77
2023/01/08 07:01:41;;;;;;;3.38;2.00;;;;;;;9.47;100.00;99550.69;5200131;28;20414;-78
2023/01/08 07:04:12;;;;;;;4.63;1.85;;;;;;;9.33;100.00;99550.47;5205109;28;20084;-79
2023/01/08 07:06:42;;;;;;;3.00;2.00;;;;;;;9.29;100.00;99559.38;5190172;28;20079;-79
2023/01/08 07:09:13;;;;;;;4.22;2.08;;;;;;;9.34;100.00;99563.41;5199844;28;20128;-78
2023/01/08 07:11:44;;;;;;;4.38;1.92;;;;;;;9.20;100.00;99559.78;5209575;28;20021;-78
2023/01/08 07:14:14;;;;;;;3.72;1.83;;;;;;;9.21;100.00;99561.47;5188014;28;20048;-79
2023/01/08 07:16:44;;;;;;;4.63;2.10;;;;;;;9.01;100.00;99558.94;5213522;28;20028;-78
2023/01/08 07:19:15;;;;;;;2.58;1.80;;;;;;;9.00;100.00;99557.25;5196780;28;20216;-78
2023/01/08 07:21:45;;;;;;;2.80;1.90;;;;;;;9.00;100.00;99557.25;5205119;28;20526;-77
2023/01/08 07:24:16;;;;;;;4.47;2.97;;;;;;;8.98;100.00;99561.69;5209884;28;20498;-78
2023/01/08 07:26:46;;;;;;;7.88;4.13;;;;;;;9.15;100.00;99564.38;5208487;28;20025;-79
2023/01/08 07:29:16;;;;;;;5.18;2.33;;;;;;;9.17;100.00;99560.75;5210597;28;20413;-78
2023/01/08 07:31:46;;;;;;;3.38;2.10;;;;;;;9.06;100.00;99556.94;5204164;28;20013;-79
2023/01/08 07:34:17;;;;;;;3.22;2.03;;;;;;;8.99;100.00;99560.75;5188016;28;20056;-79
2023/01/08 07:36:47;;;;;;;6.53;2.05;;;;;;;9.13;100.00;99566.19;5211491;28;20444;-78
2023/01/08 07:39:17;;;;;;;3.25;2.20;;;;;;;9.20;100.00;99575.41;5208873;28;20548;-78
2023/01/08 07:41:48;;;;;;;5.07;2.30;;;;;;;9.21;100.00;99577.97;5205966;28;20125;-78
2023/01/08 07:44:18;;;;;;;3.53;2.13;;;;;;;9.23;100.00;99572.66;5208487;28;20474;-78
2023/01/08 07:46:48;;;;;;;3.75;2.17;;;;;;;9.30;100.00;99574.91;5210459;28;20035;-79
2023/01/08 07:49:18;;;;;;;6.57;2.28;;;;;;;9.34;100.00;99576.47;5208909;28;20108;-78
2023/01/08 07:51:49;;;;;;;3.20;2.20;;;;;;;9.36;100.00;99568.56;5205907;28;20025;-79
2023/01/08 07:54:19;;;;;;;3.58;2.03;;;;;;;9.35;100.00;99574.72;5210147;28;20024;-78
2023/01/08 07:56:49;;;;;;;4.45;1.85;;;;;;;9.31;100.00;99579.22;5210035;28;20036;-79
2023/01/08 07:59:20;;;;;;;4.05;2.45;;;;;;;9.28;100.00;99581.13;5208128;28;20037;-79
2023/01/08 08:01:50;;;;;;;4.70;2.30;;;;;;;9.34;100.00;99584.28;5185370;28;20053;-79
2023/01/08 08:04:20;;;;;;;4.10;2.28;;;;;;;9.36;100.00;99582.47;5199230;28;20491;-79
2023/01/08 08:06:51;;;;;;;4.13;2.40;;;;;;;9.21;100.00;99577.09;5205848;28;20119;-77
2023/01/08 08:09:21;;;;;;;5.13;2.60;;;;;;;9.38;100.00;99570.22;5216657;28;20653;-78
2023/01/08 08:11:52;;;;;;;5.63;1.95;;;;;;;9.21;100.00;99577.09;5212715;28;20022;-79
2023/01/08 08:14:22;;;;;;;3.67;2.17;;;;;;;9.29;100.00;99580.22;5210681;28;20032;-79
2023/01/08 08:16:52;;;;;;;5.82;2.03;;;;;;;9.33;100.00;99566.13;5187671;28;20029;-79
2023/01/08 08:19:22;;;;;;;2.95;1.90;;;;;;;9.42;100.00;99565.66;5209255;28;20025;-78
2023/01/08 08:21:53;;;;;;;4.50;2.10;;;;;;;9.38;100.00;99570.22;5201750;28;20113;-79
2023/01/08 08:24:23;;;;;;;3.60;2.45;;;;;;;9.35;100.00;99572.09;5209581;28;20028;-79
2023/01/08 08:26:53;;;;;;;3.60;2.10;;;;;;;9.26;100.00;99562.09;5209082;28;20029;-79
2023/01/08 08:31:59;;;;;;;;;;;;;;;9.17;100.00;99570.34;5155393;28;20064;-71
2023/01/08 08:34:29;;;;;;;4.20;2.30;;;;;;;9.11;100.00;99575.84;5154955;28;19922;-71
2023/01/08 08:37:00;;;;;;;3.80;2.40;;;;;;;9.22;100.00;99578.78;5155753;28;20297;-71
2023/01/08 08:39:30;;;;;;;5.00;2.50;;;;;;;9.30;100.00;99569.69;5141371;28;20030;-71
2023/01/08 08:42:00;;;;;;;4.65;2.20;;;;;;;9.18;100.00;99577.25;5158355;28;20030;-71
2023/01/08 08:44:30;;;;;;;5.10;2.45;;;;;;;9.19;100.00;99569.38;5158008;28;20399;-71
2023/01/08 08:47:01;;;;;;;4.57;2.60;;;;;;;9.22;100.00;99568.38;5157121;28;20038;-71
2023/01/08 08:49:31;;;;;;;3.88;2.70;;;;;;;9.13;100.00;99568.81;5155647;28;20022;-71
2023/01/08 08:52:02;;;;;;;5.65;2.67;;;;;;;9.22;100.00;99564.00;5154902;28;20073;-71
2023/01/08 08:54:33;;;;;;;3.55;2.47;;;;;;;9.17;100.00;99565.13;5154441;28;20468;-71
2023/01/08 08:57:03;;;;;;;3.88;2.58;;;;;;;9.15;100.00;99561.75;5157533;28;20038;-71
2023/01/08 08:59:34;;;;;;;4.00;2.63;;;;;;;9.16;100.00;99559.06;5163350;28;20571;-71
2023/01/08 09:02:04;;;;;;;4.45;2.90;;;;;;;9.15;100.00;99564.38;5148910;28;20038;-71
2023/01/08 09:04:35;;;;;;;3.90;2.70;;;;;;;9.27;100.00;99551.59;5158263;28;20358;-71
2023/01/08 09:07:05;;;;;;;4.60;3.13;;;;;;;9.21;100.00;99556.25;5156862;28;20022;-71
2023/01/08 09:09:36;;;;;;;5.57;3.25;;;;;;;9.30;100.00;99550.63;5158243;28;20113;-70
2023/01/08 09:12:06;;;;;;;5.65;3.50;;;;;;;9.24;100.00;99543.94;5157375;28;20031;-70
2023/01/08 09:14:36;;;;;;;6.15;3.58;;;;;;;9.24;100.00;99537.84;5154357;28;20104;-71
2023/01/08 09:17:07;;;;;;;4.57;3.08;;;;;;;9.23;100.00;99537.03;5157362;28;20034;-70
2023/01/08 09:19:37;;;;;;;5.00;3.47;;;;;;;9.38;100.00;99533.72;5161275;28;20037;-71
2023/01/08 09:22:07;;;;;;;5.20;3.40;;;;;;;9.30;100.00;99545.41;5155586;28;20031;-70
2023/01/08 09:24:38;;;;;;;4.60;3.30;;;;;;;9.51;100.00;99541.78;5156867;28;20030;-71
2023/01/08 09:27:08;;;;;;;4.75;3.30;;;;;;;9.41;100.00;99535.31;5166117;28;20030;-71
2023/01/08 09:29:38;;;;;;;4.40;2.95;;;;;;;9.45;100.00;99537.69;5163842;28;20022;-70
2023/01/08 09:32:09;;;;;;;4.72;2.75;;;;;;;9.55;100.00;99535.50;5160616;28;20037;-71
2023/01/08 09:34:39;;;;;;;3.53;2.30;;;;;;;9.57;100.00;99547.56;5156933;28;20030;-71
2023/01/08 09:37:09;;;;;;;3.33;2.45;;;;;;;9.59;100.00;99547.47;5165309;28;20097;-70
2023/01/08 09:39:40;;;;;;;4.95;2.90;;;;;;;9.68;100.00;99549.66;5165512;28;20049;-71
2023/01/08 09:42:13;;;;;;;4.60;2.40;;;;;;;9.70;100.00;99550.41;5162260;28;20092;-71
2023/01/08 09:44:47;;;;;;;3.33;2.30;;;;;;;9.77;100.00;99543.97;5163695;28;20026;-71
2023/01/08 09:47:31;;;;;;;3.50;2.42;;;;;;;9.78;100.00;99543.91;5161633;28;20030;-71
2023/01/08 09:50:06;;;;;;;5.80;2.30;;;;;;;9.77;100.00;99544.81;5162421;28;20030;-71
2023/01/08 09:52:37;;;;;;;3.38;2.40;;;;;;;9.86;100.00;99548.75;5161810;28;20112;-71
2023/01/08 09:55:13;;;;;;;3.20;2.10;;;;;;;9.80;100.00;99531.63;5161768;28;20034;-71
2023/01/08 09:57:44;;;;;;;4.78;2.20;;;;;;;9.90;100.00;99530.25;5162306;28;20102;-71
2023/01/08 10:00:18;;;;;;;3.13;1.73;;;;;;;9.87;100.00;99527.81;5167441;28;20290;-71
2023/01/08 10:02:49;;;;;;;2.22;1.63;;;;;;;9.92;100.00;99525.81;5169294;28;20127;-70
2023/01/08 10:05:19;;;;;;;2.58;1.60;;;;;;;10.01;100.00;99540.16;5170587;28;20053;-71
2023/01/08 10:07:49;;;;;;;1.65;1.30;;;;;;;9.96;100.00;99527.34;5162691;28;20116;-70
2023/01/08 10:10:28;;;;;;;2.00;1.42;;;;;;;9.93;100.00;99534.47;5161893;28;20575;-71
2023/01/08 10:12:58;;;;;;;2.58;1.42;;;;;;;10.01;100.00;99532.34;5161371;28;20033;-71
2023/01/08 10:15:29;;;;;;;2.45;1.08;;;;;;;10.04;100.00;99520.03;5167044;28;20029;-71
2023/01/08 10:18:13;;;;;;;1.80;1.13;;;;;;;10.08;100.00;99510.25;5161279;28;20472;-70
2023/01/08 10:20:43;;;;;;;1.85;1.00;;;;;;;10.01;100.00;99501.03;5161541;28;20030;-71
2023/01/08 10:23:16;;;;;;;1.75;0.80;;;;;;;9.97;100.00;99489.06;5159408;28;20095;-70
2023/01/08 10:25:56;;;;;;;1.42;1.00;;;;;;;10.15;100.00;99486.38;5160327;28;20113;-71
2023/01/08 10:28:34;;;;;;;2.22;0.88;;;;;;;10.29;100.00;99503.94;5161271;28;20050;-71
2023/01/08 10:31:09;;;;;;;1.13;0.65;;;;;;;10.34;100.00;99500.16;5159904;28;20035;-71
2023/01/08 10:33:45;;;;;;;1.00;0.75;;;;;;;10.26;100.00;99494.50;5167765;28;20524;-71
2023/01/08 10:36:21;;;;;;;1.15;0.70;;;;;;;10.15;100.00;99493.38;5160541;28;20026;-71
2023/01/08 10:38:55;;;;;;;;;;;;;;;10.03;100.00;99493.97;5164827;28;20034;-71
2023/01/08 10:41:26;;;;;;;2.05;1.00;;;;;;;10.04;100.00;99512.19;5164248;28;20388;-71
2023/01/08 10:44:01;;;;;;;2.38;1.00;;;;;;;10.04;100.00;99516.56;5161645;28;20030;-71
2023/01/08 10:46:40;;;;;;;1.15;0.80;;;;;;;10.15;100.00;99511.66;5163606;28;20035;-70
2023/01/08 10:49:18;;;;;;;1.67;0.98;;;;;;;10.14;100.00;99510.78;5158104;28;20036;-71
2023/01/08 10:51:51;;;;;;;1.00;0.80;;;;;;;10.12;100.00;99514.38;5155864;28;20053;-70
2023/01/08 10:54:32;;;;;;;1.52;0.77;;;;;;;10.08;100.00;99507.63;5161703;28;20036;-70
2023/01/08 10:57:23;;;;;;;1.10;0.70;;;;;;;10.13;100.00;99509.09;5159891;28;20037;-71
2023/01/08 10:59:55;;;;;;;1.63;0.70;;;;;;;10.15;100.00;99503.81;5164131;28;20531;-71
2023/01/08 11:02:36;;;;;;;2.80;0.70;;;;;;;10.09;100.00;99496.28;5165961;28;20109;-71
2023/01/08 11:05:10;;;;;;;1.00;0.70;;;;;;;10.10;100.00;99496.22;5163679;28;20105;-72
2023/01/08 11:07:40;;;;;;;2.05;0.80;;;;;;;10.08;100.00;99499.81;5146193;28;20058;-71
2023/01/08 11:10:23;;;;;;;2.60;0.82;;;;;;;10.08;100.00;99500.66;5160812;28;20065;-71
2023/01/08 11:12:56;;;;;;;0.63;0.50;;;;;;;9.94;100.00;99483.97;5167577;28;20096;-71
2023/01/08 11:15:38;;;;;;;1.40;0.80;;;;;;;9.94;100.00;99477.00;5155500;28;20162;-71
2023/01/08 11:18:19;;;;;;;1.17;0.80;;;;;;;10.02;100.00;99484.47;5159819;28;20484;-72
2023/01/08 11:20:51;;;;;;;0.75;0.50;;;;;;;10.00;100.00;99475.84;5153092;28;20307;-71
2023/01/08 11:23:21;;;;;;;0.73;0.50;;;;;;;9.94;100.00;99486.56;5160032;28;20049;-71
2023/01/08 11:26:20;;;;;;;1.92;0.70;;;;;;;9.94;100.00;99481.34;5153199;28;20042;-71
2023/01/08 11:28:58;;;;;;;1.42;0.70;;;;;;;9.83;100.00;99471.44;5156039;28;20046;-72
2023/01/08 11:31:57;;;;;;;0.63;0.50;;;;;;;9.95;100.00;99463.03;5153103;28;20500;-71
2023/01/08 11:34:38;;;;;;;1.95;0.50;;;;;;;9.82;100.00;99466.34;5121025;28;20057;-72
2023/01/08 11:37:13;;;;;;;1.30;0.80;;;;;;;9.96;100.00;99459.47;5138568;28;20034;-71
2023/01/08 11:39:44;;;;;;;1.67;0.90;;;;;;;10.03;100.00;99447.00;5155513;28;20034;-71
2023/01/08 11:42:30;;;;;;;2.88;0.77;;;;;;;9.97;100.00;99435.06;5156298;28;20404;-72
2023/01/08 11:45:18;;;;;;;1.98;0.73;;;;;;;10.15;100.00;99430.72;5155253;28;20055;-71
2023/01/08 11:48:26;;;;;;;1.10;0.50;;;;;;;10.29;100.00;99430.81;5148417;28;20161;-72
2023/01/08 11:51:25;;;;;;;1.20;0.80;;;;;;;10.30;100.00;99411.59;5153206;28;20073;-71
2023/01/08 11:54:32;;;;;;;2.50;0.63;;;;;;;10.26;100.00;99410.94;5154253;28;20408;-71
2023/01/08 11:57:27;;;;;;;2.63;0.52;;;;;;;10.31;100.00;99408.09;5153113;28;20422;-71
2023/01/08 12:00:30;;;;;;;1.95;0.77;;;;;;;10.27;100.00;99407.41;5152835;28;20037;-71
2023/01/08 12:03:06;;;;;;;1.00;0.52;;;;;;;10.34;100.00;99385.25;5163470;28;20018;-71